Portada
METAR-TAF:

METAR-TAF

Aeropuertos :

Gorgan, Irán

latitud: 36-49N, longitud: 054-28E, altitud: 155 m

Observación

El informe se hizo hace 45 minutos, a las 22:00 UTC
Viento 6 kt del oeste
Temperatura 7°C
Humedad 93%
Presión 1025 hPa
Visibilidad: 6000 m
Cielo nuboso a una altura de 2000 ft
Cielo cubierto a una altura de 7000 ft
lluvia ligera

METAR: OING 242200Z 28006KT 6000 -RA BKN020 OVC070 07/06 Q1025

Hora: 02:15 (22:45 UTC)


TAF: falta

Observaciones y pronósticos meteorológicos de más de 4000 aeropuertos (mensajes METAR y TAF).

Los puntos amarillos y rojos representan las estaciones disponibles.

Ponga el ratón en el punto deseado para ver el nombre de la estación.

Haga clic para ver las observaciones y los pronósticos meteorológicos.

Para cambiar el mapa : haga clic en los botones verdes con una cruz de color negro para hacer un zoom, en el botón verde con un guión para alejar o en las flechas verdes para mapas adyacentes.


METAR-TAF: